createdAt,value
2018-01-04T00:00:16.351Z,0.00
2018-01-04T00:01:16.259Z,0.00
2018-01-04T00:03:09.515Z,0.00
2018-01-04T00:04:09.446Z,0.00
2018-01-04T00:06:02.716Z,0.00
2018-01-04T00:07:02.627Z,0.00
2018-01-04T00:08:55.881Z,0.00
2018-01-04T00:09:55.810Z,0.00
2018-01-04T00:11:49.086Z,0.00
2018-01-04T00:12:48.997Z,0.00
2018-01-04T00:14:42.271Z,0.00
2018-01-04T00:15:42.184Z,0.00
2018-01-04T00:17:35.438Z,0.00
2018-01-04T00:18:35.366Z,0.00
2018-01-04T00:20:28.638Z,0.00
2018-01-04T00:21:28.549Z,0.00
2018-01-04T00:23:21.804Z,0.00
2018-01-04T00:24:21.735Z,0.00
2018-01-04T00:26:15.014Z,0.00
2018-01-04T00:27:14.920Z,0.00
2018-01-04T00:29:08.173Z,0.00
2018-01-04T00:30:08.122Z,0.00
2018-01-04T00:32:01.394Z,0.00
2018-01-04T00:33:01.305Z,0.00
2018-01-04T00:34:54.580Z,0.00
2018-01-04T00:35:54.495Z,0.00
2018-01-04T00:37:47.748Z,0.00
2018-01-04T00:38:47.673Z,0.00
2018-01-04T00:40:40.951Z,0.00
2018-01-04T00:41:40.861Z,0.00
2018-01-04T00:43:34.115Z,0.00
2018-01-04T00:44:34.045Z,0.00
2018-01-04T00:46:27.395Z,0.00
2018-01-04T00:47:27.305Z,0.00
2018-01-04T00:49:20.563Z,0.00
2018-01-04T00:50:20.492Z,0.00
2018-01-04T00:52:13.768Z,0.00
2018-01-04T00:53:13.678Z,0.00
2018-01-04T00:55:06.954Z,0.00
2018-01-04T00:56:06.862Z,0.00
2018-01-04T00:58:00.116Z,0.00
2018-01-04T00:59:00.044Z,0.00
2018-01-04T01:00:53.396Z,0.00
2018-01-04T01:01:53.306Z,0.00
2018-01-04T01:03:46.566Z,0.00
2018-01-04T01:04:46.494Z,0.00
2018-01-04T01:06:39.763Z,0.00
2018-01-04T01:07:39.676Z,0.00
2018-01-04T01:09:32.937Z,0.00
2018-01-04T01:10:32.866Z,0.00
2018-01-04T01:12:26.249Z,0.00
2018-01-04T01:13:26.048Z,0.00
2018-01-04T01:15:19.392Z,0.00
2018-01-04T01:16:19.304Z,0.00
2018-01-04T01:18:12.558Z,0.00
2018-01-04T01:19:12.487Z,0.00
2018-01-04T01:21:05.764Z,0.00
2018-01-04T01:22:05.674Z,0.00
2018-01-04T01:23:58.927Z,0.00
2018-01-04T01:24:58.854Z,0.00
2018-01-04T01:26:52.133Z,0.00
2018-01-04T01:27:52.044Z,0.00
2018-01-04T01:29:45.378Z,0.00
2018-01-04T01:30:45.308Z,0.00
2018-01-04T01:32:38.588Z,0.00
2018-01-04T01:33:38.493Z,0.00
2018-01-04T01:35:31.768Z,0.00
2018-01-04T01:36:31.677Z,0.00
2018-01-04T01:38:24.936Z,0.00
2018-01-04T01:39:24.860Z,0.00
2018-01-04T01:41:18.133Z,0.00
2018-01-04T01:42:18.045Z,0.00
2018-01-04T01:44:11.392Z,0.00
2018-01-04T01:45:11.306Z,0.00
2018-01-04T01:47:04.582Z,0.00
2018-01-04T01:48:04.495Z,0.00
2018-01-04T01:49:57.747Z,0.00
2018-01-04T01:50:57.682Z,0.00
2018-01-04T01:52:50.955Z,0.00
2018-01-04T01:53:50.862Z,0.00
2018-01-04T01:55:44.139Z,0.00
2018-01-04T01:56:44.048Z,0.00
2018-01-04T01:58:37.378Z,0.00
2018-01-04T01:59:37.309Z,0.00
2018-01-04T02:01:30.693Z,0.00
2018-01-04T02:02:30.493Z,0.00
2018-01-04T02:04:23.746Z,0.00
2018-01-04T02:05:23.677Z,0.00
2018-01-04T02:07:16.949Z,0.00
2018-01-04T02:08:16.861Z,0.00
2018-01-04T02:10:10.112Z,0.00
2018-01-04T02:11:10.038Z,0.00
2018-01-04T02:13:03.398Z,0.00
2018-01-04T02:14:03.306Z,0.00
2018-01-04T02:15:56.692Z,0.00
2018-01-04T02:16:56.494Z,0.00
2018-01-04T02:18:49.751Z,0.00
2018-01-04T02:19:49.678Z,0.00
2018-01-04T02:21:42.951Z,0.00
2018-01-04T02:22:42.861Z,0.00
2018-01-04T02:24:36.120Z,0.00
2018-01-04T02:25:36.050Z,0.00
2018-01-04T02:27:29.398Z,0.00
2018-01-04T02:28:29.305Z,0.00
2018-01-04T02:30:22.562Z,0.00
2018-01-04T02:31:22.492Z,0.00
2018-01-04T02:33:15.876Z,0.00
2018-01-04T02:34:15.679Z,0.00
2018-01-04T02:36:08.954Z,0.00
2018-01-04T02:37:08.862Z,0.00
2018-01-04T02:39:02.122Z,0.00
2018-01-04T02:40:02.048Z,0.00
2018-01-04T02:41:55.434Z,0.00
2018-01-04T02:42:55.308Z,0.00
2018-01-04T02:44:48.563Z,0.00
2018-01-04T02:45:48.496Z,0.00
2018-01-04T02:47:41.771Z,0.00
2018-01-04T02:48:41.682Z,0.00
2018-01-04T02:50:34.948Z,0.00
2018-01-04T02:51:34.867Z,0.00
2018-01-04T02:53:28.143Z,0.00
2018-01-04T02:54:28.054Z,0.00
2018-01-04T02:56:21.440Z,0.00
2018-01-04T02:57:21.307Z,0.00
2018-01-04T02:59:14.568Z,0.00
2018-01-04T03:00:14.496Z,0.00
2018-01-04T03:02:07.885Z,0.00
2018-01-04T03:03:07.685Z,0.00
2018-01-04T03:05:01.937Z,0.00
2018-01-04T03:06:01.866Z,0.00
2018-01-04T03:07:55.247Z,0.00
2018-01-04T03:08:55.048Z,0.00
2018-01-04T03:10:49.380Z,0.00
2018-01-04T03:11:49.307Z,0.00
2018-01-04T03:13:42.582Z,0.00
2018-01-04T03:14:42.490Z,0.00
2018-01-04T03:16:35.773Z,0.00
2018-01-04T03:17:35.678Z,0.00
2018-01-04T03:19:28.935Z,0.00
2018-01-04T03:20:28.864Z,0.00
2018-01-04T03:22:22.138Z,0.00
2018-01-04T03:23:22.052Z,0.00
2018-01-04T03:25:15.382Z,0.00
2018-01-04T03:26:15.310Z,0.00
2018-01-04T03:28:08.576Z,0.00
2018-01-04T03:29:08.496Z,0.00
2018-01-04T03:31:01.750Z,0.00
2018-01-04T03:32:01.679Z,0.00
2018-01-04T03:33:54.953Z,0.00
2018-01-04T03:34:54.867Z,0.00
2018-01-04T03:36:48.248Z,0.00
2018-01-04T03:37:48.050Z,0.00
2018-01-04T03:39:41.380Z,0.00
2018-01-04T03:40:41.308Z,0.00
2018-01-04T03:42:34.599Z,0.00
2018-01-04T03:43:34.498Z,0.00
2018-01-04T03:45:27.749Z,0.00
2018-01-04T03:46:27.678Z,0.00
2018-01-04T03:48:21.951Z,0.00
2018-01-04T03:49:21.864Z,0.00
2018-01-04T03:51:15.257Z,0.00
2018-01-04T03:52:15.052Z,0.00
2018-01-04T03:54:08.307Z,0.00
2018-01-04T03:55:08.245Z,0.00
2018-01-04T03:57:01.515Z,0.00
2018-01-04T03:58:01.422Z,0.00
2018-01-04T03:59:54.678Z,0.00
2018-01-04T04:00:54.606Z,0.00
2018-01-04T04:02:47.882Z,0.00
2018-01-04T04:03:47.793Z,0.00
2018-01-04T04:05:41.048Z,0.00
2018-01-04T04:06:40.978Z,0.00
2018-01-04T04:08:34.252Z,0.00
2018-01-04T04:09:34.164Z,0.00
2018-01-04T04:11:27.457Z,0.00
2018-01-04T04:12:27.348Z,0.00
2018-01-04T04:14:20.718Z,0.00
2018-01-04T04:15:20.537Z,0.00
2018-01-04T04:17:13.812Z,0.00
2018-01-04T04:18:13.722Z,0.00
2018-01-04T04:20:06.986Z,0.00
2018-01-04T04:21:06.913Z,0.00
2018-01-04T04:23:00.186Z,0.00
2018-01-04T04:24:00.098Z,0.00
2018-01-04T04:25:53.381Z,0.00
2018-01-04T04:26:53.307Z,0.00
2018-01-04T04:28:46.686Z,0.00
2018-01-04T04:29:46.496Z,0.00
2018-01-04T04:31:39.790Z,0.00
2018-01-04T04:32:39.687Z,0.00
2018-01-04T04:34:34.048Z,0.00
2018-01-04T04:35:33.867Z,0.00
2018-01-04T04:37:27.141Z,0.00
2018-01-04T04:38:27.052Z,0.00
2018-01-04T04:40:20.321Z,0.00
2018-01-04T04:41:20.250Z,0.00
2018-01-04T04:43:13.633Z,0.00
2018-01-04T04:44:13.435Z,0.00
2018-01-04T04:46:06.694Z,0.00
2018-01-04T04:47:06.624Z,0.00
2018-01-04T04:48:59.898Z,0.00
2018-01-04T04:49:59.808Z,0.00
2018-01-04T04:51:53.106Z,0.00
2018-01-04T04:52:52.997Z,0.00
2018-01-04T04:54:46.364Z,0.00
2018-01-04T04:55:46.183Z,0.00
2018-01-04T04:57:39.458Z,0.00
2018-01-04T04:58:39.372Z,0.00
2018-01-04T05:00:32.735Z,0.00
2018-01-04T05:01:32.556Z,0.00
2018-01-04T05:03:25.831Z,0.00
2018-01-04T05:04:25.740Z,0.00
2018-01-04T05:06:18.997Z,0.00
2018-01-04T05:07:18.930Z,0.00
2018-01-04T05:09:12.313Z,0.00
2018-01-04T05:10:12.119Z,0.00
2018-01-04T05:12:05.391Z,0.00
2018-01-04T05:13:05.305Z,0.00
2018-01-04T05:14:58.561Z,0.00
2018-01-04T05:15:58.493Z,0.00
2018-01-04T05:17:51.767Z,0.00
2018-01-04T05:18:51.678Z,0.00
2018-01-04T05:20:44.943Z,0.00
2018-01-04T05:21:44.869Z,0.00
2018-01-04T05:23:39.258Z,0.00
2018-01-04T05:24:39.054Z,0.00
2018-01-04T05:26:32.421Z,0.00
2018-01-04T05:27:32.248Z,0.00
2018-01-04T05:29:25.629Z,0.00
2018-01-04T05:30:25.422Z,0.00
2018-01-04T05:32:18.701Z,0.00
2018-01-04T05:33:18.610Z,0.00
2018-01-04T05:35:11.976Z,0.00
2018-01-04T05:36:11.797Z,0.00
2018-01-04T05:38:05.071Z,0.00
2018-01-04T05:39:04.980Z,0.00
2018-01-04T05:40:58.242Z,0.00
2018-01-04T05:41:58.172Z,0.00
2018-01-04T05:43:51.557Z,0.00
2018-01-04T05:44:51.358Z,0.00
2018-01-04T05:46:44.619Z,0.00
2018-01-04T05:47:44.552Z,0.00
2018-01-04T05:49:37.820Z,0.00
2018-01-04T05:50:37.737Z,0.00
2018-01-04T05:52:31.009Z,0.00
2018-01-04T05:53:30.925Z,0.00
2018-01-04T05:55:24.177Z,0.00
2018-01-04T05:56:24.109Z,0.00
2018-01-04T05:58:17.492Z,0.00
2018-01-04T05:59:17.317Z,0.00
2018-01-04T06:01:10.586Z,0.00
2018-01-04T06:02:10.503Z,0.00
2018-01-04T06:04:03.776Z,0.00
2018-01-04T06:05:03.682Z,0.00
2018-01-04T06:06:56.945Z,0.00
2018-01-04T06:07:56.874Z,0.00
2018-01-04T06:09:50.150Z,0.00
2018-01-04T06:10:50.062Z,0.00
2018-01-04T06:12:43.392Z,0.00
2018-01-04T06:13:43.302Z,0.00
2018-01-04T06:15:36.613Z,0.00
2018-01-04T06:16:36.484Z,0.00
2018-01-04T06:18:29.763Z,0.00
2018-01-04T06:19:29.677Z,0.00
2018-01-04T06:21:22.929Z,0.00
2018-01-04T06:22:22.860Z,0.00
2018-01-04T06:24:16.141Z,0.00
2018-01-04T06:25:16.050Z,0.00
2018-01-04T06:27:09.382Z,0.00
2018-01-04T06:28:09.302Z,0.00
2018-01-04T06:30:02.581Z,0.00
2018-01-04T06:31:02.493Z,0.00
2018-01-04T06:32:55.768Z,0.00
2018-01-04T06:33:55.678Z,0.00
2018-01-04T06:35:48.937Z,0.00
2018-01-04T06:36:48.866Z,0.00
2018-01-04T06:38:42.156Z,0.00
2018-01-04T06:39:42.052Z,0.00
2018-01-04T06:41:35.380Z,0.00
2018-01-04T06:42:35.303Z,0.00
2018-01-04T06:44:28.579Z,0.00
2018-01-04T06:45:28.492Z,0.00
2018-01-04T06:47:21.859Z,0.00
2018-01-04T06:48:21.680Z,0.00
2018-01-04T06:50:14.951Z,0.00
2018-01-04T06:51:14.858Z,0.00
2018-01-04T06:53:08.141Z,0.00
2018-01-04T06:54:08.046Z,0.00
2018-01-04T06:56:01.374Z,0.00
2018-01-04T06:57:01.302Z,0.00
2018-01-04T06:58:54.577Z,0.00
2018-01-04T06:59:54.497Z,0.00
2018-01-04T07:01:47.747Z,0.00
2018-01-04T07:02:47.676Z,0.00
2018-01-04T07:04:40.948Z,0.00
2018-01-04T07:05:40.853Z,0.00
2018-01-04T07:07:34.099Z,0.00
2018-01-04T07:08:34.029Z,0.00
2018-01-04T07:10:27.402Z,0.00
2018-01-04T07:11:27.398Z,0.00
2018-01-04T07:13:20.586Z,0.00
2018-01-04T07:14:20.497Z,0.00
2018-01-04T07:16:13.764Z,0.00
2018-01-04T07:17:13.676Z,0.00
2018-01-04T07:19:06.949Z,0.00
2018-01-04T07:20:06.862Z,0.00
2018-01-04T07:22:00.124Z,0.00
2018-01-04T07:23:00.052Z,0.00
2018-01-04T07:24:53.396Z,0.00
2018-01-04T07:25:53.306Z,0.00
2018-01-04T07:27:46.568Z,0.00
2018-01-04T07:28:46.498Z,0.00
2018-01-04T07:30:39.766Z,0.00
2018-01-04T07:31:39.676Z,0.00
2018-01-04T07:33:32.936Z,0.00
2018-01-04T07:34:32.849Z,0.00
2018-01-04T07:36:26.116Z,0.00
2018-01-04T07:37:26.029Z,0.00
2018-01-04T07:39:19.308Z,0.00
2018-01-04T07:40:19.207Z,0.00
2018-01-04T07:42:12.456Z,0.00
2018-01-04T07:43:12.382Z,0.00
2018-01-04T07:45:05.659Z,0.00
2018-01-04T07:46:05.569Z,0.00
2018-01-04T07:47:58.827Z,0.00
2018-01-04T07:48:58.756Z,0.00
2018-01-04T07:50:52.144Z,0.00
2018-01-04T07:51:51.932Z,0.00
2018-01-04T07:53:45.190Z,0.00
2018-01-04T07:54:45.121Z,0.00
2018-01-04T07:56:38.392Z,0.00
2018-01-04T07:57:38.310Z,0.00
2018-01-04T07:59:31.556Z,0.00
2018-01-04T08:00:31.486Z,0.00
2018-01-04T08:02:24.751Z,0.00
2018-01-04T08:03:24.661Z,0.00
2018-01-04T08:05:17.949Z,0.00
2018-01-04T08:06:17.849Z,5.63
2018-01-04T08:08:11.106Z,5.63
2018-01-04T08:09:11.036Z,5.63
2018-01-04T08:11:04.300Z,5.63
2018-01-04T08:12:04.216Z,5.63
2018-01-04T08:13:57.469Z,0.00
2018-01-04T08:14:57.399Z,0.00
2018-01-04T08:16:50.665Z,0.00
2018-01-04T08:17:50.576Z,0.00
2018-01-04T08:19:43.826Z,0.00
2018-01-04T08:20:43.755Z,0.00
2018-01-04T08:22:37.024Z,0.00
2018-01-04T08:23:36.949Z,0.00
2018-01-04T08:25:30.189Z,5.63
2018-01-04T08:26:30.119Z,5.63
2018-01-04T08:28:23.398Z,5.63
2018-01-04T08:29:23.310Z,5.63
2018-01-04T08:31:16.584Z,5.63
2018-01-04T08:32:16.497Z,5.63
2018-01-04T08:34:09.862Z,5.63
2018-01-04T08:35:09.672Z,5.63
2018-01-04T08:37:02.940Z,5.63
2018-01-04T08:38:02.853Z,5.63
2018-01-04T08:39:56.100Z,5.63
2018-01-04T08:40:56.034Z,5.63
2018-01-04T08:42:49.414Z,5.63
2018-01-04T08:43:49.322Z,5.63
2018-01-04T08:45:42.581Z,5.63
2018-01-04T08:46:42.513Z,5.63
2018-01-04T08:48:35.795Z,5.63
2018-01-04T08:49:35.700Z,11.25
2018-01-04T08:51:28.953Z,11.25
2018-01-04T08:52:28.878Z,11.25
2018-01-04T08:54:22.154Z,11.25
2018-01-04T08:55:22.067Z,11.25
2018-01-04T08:57:15.407Z,11.25
2018-01-04T08:58:15.310Z,5.63
2018-01-04T09:00:08.565Z,5.63
2018-01-04T09:01:08.501Z,5.63
2018-01-04T09:03:01.778Z,5.63
2018-01-04T09:04:01.690Z,5.63
2018-01-04T09:05:54.938Z,5.63
2018-01-04T09:06:54.868Z,11.25
2018-01-04T09:08:48.252Z,11.25
2018-01-04T09:09:48.056Z,11.25
2018-01-04T09:11:41.380Z,11.25
2018-01-04T09:12:41.308Z,11.25
2018-01-04T09:14:34.594Z,11.25
2018-01-04T09:15:34.506Z,11.25
2018-01-04T09:17:27.761Z,16.88
2018-01-04T09:18:27.692Z,16.88
2018-01-04T09:20:20.962Z,22.50
2018-01-04T09:21:20.874Z,22.50
2018-01-04T09:23:14.259Z,28.13
2018-01-04T09:24:14.053Z,28.13
2018-01-04T09:26:07.418Z,28.13
2018-01-04T09:27:07.313Z,28.13
2018-01-04T09:29:00.596Z,33.75
2018-01-04T09:30:00.507Z,33.75
2018-01-04T09:31:53.775Z,33.75
2018-01-04T09:32:53.708Z,33.75
2018-01-04T09:34:46.984Z,33.75
2018-01-04T09:35:46.896Z,33.75
2018-01-04T09:37:40.266Z,33.75
2018-01-04T09:38:40.080Z,33.75
2018-01-04T09:40:33.398Z,33.75
2018-01-04T09:41:33.313Z,33.75
2018-01-04T09:43:26.595Z,33.75
2018-01-04T09:44:26.488Z,33.75
2018-01-04T09:46:19.853Z,22.50
2018-01-04T09:47:19.669Z,16.88
2018-01-04T09:49:12.964Z,16.88
2018-01-04T09:50:12.856Z,16.88
2018-01-04T09:52:06.105Z,16.88
2018-01-04T09:53:06.035Z,16.88
2018-01-04T09:54:59.422Z,22.50
2018-01-04T09:55:59.312Z,22.50
2018-01-04T09:57:52.580Z,16.88
2018-01-04T09:58:52.517Z,16.88
2018-01-04T10:00:45.782Z,16.88
2018-01-04T10:01:45.698Z,16.88
2018-01-04T10:03:38.976Z,16.88
2018-01-04T10:04:38.876Z,16.88
2018-01-04T10:06:32.244Z,16.88
2018-01-04T10:07:32.068Z,16.88
2018-01-04T10:09:25.342Z,16.88
2018-01-04T10:10:25.248Z,22.50
2018-01-04T10:12:18.506Z,28.13
2018-01-04T10:13:18.436Z,28.13
2018-01-04T10:15:11.714Z,22.50
2018-01-04T10:16:11.626Z,28.13
2018-01-04T10:18:04.891Z,22.50
2018-01-04T10:19:04.819Z,28.13
2018-01-04T10:20:58.091Z,28.13
2018-01-04T10:21:58.005Z,28.13
2018-01-04T10:23:51.402Z,28.13
2018-01-04T10:24:51.193Z,33.75
2018-01-04T10:26:44.445Z,33.75
2018-01-04T10:27:44.376Z,39.38
2018-01-04T10:29:37.645Z,39.38
2018-01-04T10:30:37.555Z,45.00
2018-01-04T10:32:30.812Z,45.00
2018-01-04T10:33:30.745Z,45.00
2018-01-04T10:35:24.130Z,45.00
2018-01-04T10:36:23.934Z,45.00
2018-01-04T10:38:17.197Z,45.00
2018-01-04T10:39:17.125Z,45.00
2018-01-04T10:41:10.512Z,39.38
2018-01-04T10:42:10.314Z,33.75
2018-01-04T10:44:03.594Z,33.75
2018-01-04T10:45:03.533Z,33.75
2018-01-04T10:46:56.765Z,28.13
2018-01-04T10:47:56.695Z,28.13
2018-01-04T10:49:49.977Z,33.75
2018-01-04T10:50:49.893Z,28.13
2018-01-04T10:52:43.260Z,33.75
2018-01-04T10:53:43.071Z,33.75
2018-01-04T10:55:36.352Z,45.00
2018-01-04T10:56:36.260Z,56.25
2018-01-04T10:58:29.521Z,61.88
2018-01-04T10:59:29.452Z,61.88
2018-01-04T11:01:22.730Z,67.50
2018-01-04T11:02:22.641Z,67.50
2018-01-04T11:04:16.029Z,67.50
2018-01-04T11:05:15.851Z,67.50
2018-01-04T11:07:09.112Z,73.13
2018-01-04T11:08:09.043Z,73.13
2018-01-04T11:10:02.431Z,73.13
2018-01-04T11:11:02.235Z,67.50
2018-01-04T11:12:55.486Z,56.25
2018-01-04T11:13:55.416Z,50.63
2018-01-04T11:15:48.802Z,45.00
2018-01-04T11:16:48.609Z,45.00
2018-01-04T11:18:41.869Z,45.00
2018-01-04T11:19:41.803Z,45.00
2018-01-04T11:21:35.193Z,50.63
2018-01-04T11:22:34.976Z,39.38
2018-01-04T11:24:28.259Z,39.38
2018-01-04T11:25:28.177Z,39.38
2018-01-04T11:27:21.433Z,50.63
2018-01-04T11:28:21.365Z,50.63
2018-01-04T11:30:15.252Z,45.00
2018-01-04T11:31:14.557Z,50.63
2018-01-04T11:33:07.820Z,50.63
2018-01-04T11:34:07.749Z,56.25
2018-01-04T11:36:01.028Z,50.63
2018-01-04T11:37:00.940Z,56.25
2018-01-04T11:38:54.310Z,56.25
2018-01-04T11:39:54.130Z,61.88
2018-01-04T11:41:47.414Z,61.88
2018-01-04T11:42:47.327Z,61.88
2018-01-04T11:44:40.604Z,61.88
2018-01-04T11:45:40.518Z,56.25
2018-01-04T11:47:33.780Z,61.88
2018-01-04T11:48:33.713Z,61.88
2018-01-04T11:50:27.102Z,56.25
2018-01-04T11:51:26.906Z,56.25
2018-01-04T11:53:20.159Z,50.63
2018-01-04T11:54:20.092Z,50.63
2018-01-04T11:56:14.371Z,50.63
2018-01-04T11:57:14.284Z,50.63
2018-01-04T11:59:07.573Z,45.00
2018-01-04T12:00:07.475Z,45.00
2018-01-04T12:02:00.757Z,45.00
2018-01-04T12:03:00.677Z,45.00
2018-01-04T12:04:53.950Z,45.00
2018-01-04T12:05:53.865Z,45.00
2018-01-04T12:07:47.209Z,45.00
2018-01-04T12:08:47.136Z,39.38
2018-01-04T12:10:40.417Z,39.38
2018-01-04T12:11:40.333Z,39.38
2018-01-04T12:13:33.581Z,45.00
2018-01-04T12:14:33.511Z,45.00
2018-01-04T12:16:27.789Z,50.63
2018-01-04T12:17:27.708Z,50.63
2018-01-04T12:19:20.952Z,45.00
2018-01-04T12:20:20.881Z,45.00
2018-01-04T12:22:14.163Z,45.00
2018-01-04T12:23:14.076Z,45.00
2018-01-04T12:25:07.398Z,50.63
2018-01-04T12:26:07.308Z,50.63
2018-01-04T12:28:00.567Z,56.25
2018-01-04T12:29:00.499Z,56.25
2018-01-04T12:30:53.885Z,56.25
2018-01-04T12:31:53.691Z,50.63
2018-01-04T12:33:46.952Z,50.63
2018-01-04T12:34:46.883Z,50.63
2018-01-04T12:36:40.164Z,45.00
2018-01-04T12:37:40.072Z,39.38
2018-01-04T12:39:33.377Z,39.38
2018-01-04T12:40:33.309Z,39.38
2018-01-04T12:42:26.588Z,39.38
2018-01-04T12:43:26.494Z,39.38
2018-01-04T12:45:19.780Z,45.00
2018-01-04T12:46:19.691Z,45.00
2018-01-04T12:48:13.060Z,45.00
2018-01-04T12:49:12.876Z,45.00
2018-01-04T12:51:06.154Z,39.38
2018-01-04T12:52:06.062Z,39.38
2018-01-04T12:53:59.378Z,39.38
2018-01-04T12:54:59.309Z,39.38
2018-01-04T12:56:52.588Z,33.75
2018-01-04T12:57:52.503Z,33.75
2018-01-04T12:59:45.764Z,33.75
2018-01-04T13:00:45.696Z,33.75
2018-01-04T13:02:38.974Z,33.75
2018-01-04T13:03:38.890Z,33.75
2018-01-04T13:05:32.168Z,33.75
2018-01-04T13:06:32.084Z,39.38
2018-01-04T13:08:25.376Z,33.75
2018-01-04T13:09:25.308Z,33.75
2018-01-04T13:11:18.698Z,33.75
2018-01-04T13:12:18.506Z,33.75
2018-01-04T13:14:11.765Z,33.75
2018-01-04T13:15:11.695Z,33.75
2018-01-04T13:17:05.090Z,33.75
2018-01-04T13:18:04.890Z,33.75
2018-01-04T13:19:58.147Z,33.75
2018-01-04T13:20:58.076Z,28.13
2018-01-04T13:22:51.397Z,28.13
2018-01-04T13:23:51.311Z,28.13
2018-01-04T13:25:44.591Z,22.50
2018-01-04T13:26:44.505Z,22.50
2018-01-04T13:28:37.765Z,28.13
2018-01-04T13:29:37.697Z,33.75
2018-01-04T13:31:30.976Z,33.75
2018-01-04T13:32:30.894Z,28.13
2018-01-04T13:34:24.155Z,28.13
2018-01-04T13:35:24.085Z,28.13
2018-01-04T13:37:17.398Z,28.13
2018-01-04T13:38:17.310Z,28.13
2018-01-04T13:40:10.565Z,28.13
2018-01-04T13:41:10.492Z,28.13
2018-01-04T13:43:03.774Z,22.50
2018-01-04T13:44:03.695Z,22.50
2018-01-04T13:45:58.077Z,16.88
2018-01-04T13:46:57.901Z,16.88
2018-01-04T13:48:51.139Z,16.88
2018-01-04T13:49:51.068Z,16.88
2018-01-04T13:51:44.349Z,16.88
2018-01-04T13:52:44.261Z,22.50
2018-01-04T13:54:37.515Z,22.50
2018-01-04T13:55:37.455Z,22.50
2018-01-04T13:57:30.731Z,22.50
2018-01-04T13:58:30.646Z,22.50
2018-01-04T14:00:24.012Z,22.50
2018-01-04T14:01:23.856Z,22.50
2018-01-04T14:03:17.227Z,16.88
2018-01-04T14:04:17.044Z,16.88
2018-01-04T14:06:10.328Z,16.88
2018-01-04T14:07:10.229Z,16.88
2018-01-04T14:09:03.489Z,16.88
2018-01-04T14:10:03.420Z,22.50
2018-01-04T14:11:56.696Z,22.50
2018-01-04T14:12:56.608Z,22.50
2018-01-04T14:14:49.877Z,22.50
2018-01-04T14:15:49.807Z,22.50
2018-01-04T14:17:43.086Z,22.50
2018-01-04T14:18:42.996Z,22.50
2018-01-04T14:20:36.265Z,16.88
2018-01-04T14:21:36.201Z,16.88
2018-01-04T14:23:29.581Z,11.25
2018-01-04T14:24:29.389Z,11.25
2018-01-04T14:26:22.766Z,11.25
2018-01-04T14:27:22.578Z,11.25
2018-01-04T14:29:15.841Z,11.25
2018-01-04T14:30:15.769Z,11.25
2018-01-04T14:32:09.044Z,11.25
2018-01-04T14:33:08.961Z,11.25
2018-01-04T14:35:02.324Z,11.25
2018-01-04T14:36:02.147Z,11.25
2018-01-04T14:37:55.431Z,5.63
2018-01-04T14:38:55.336Z,5.63
2018-01-04T14:40:48.604Z,5.63
2018-01-04T14:41:48.562Z,5.63
2018-01-04T14:43:41.814Z,5.63
2018-01-04T14:44:41.722Z,5.63
2018-01-04T14:46:35.000Z,5.63
2018-01-04T14:47:34.911Z,5.63
2018-01-04T14:49:28.160Z,0.00
2018-01-04T14:50:28.093Z,0.00
2018-01-04T14:52:21.398Z,0.00
2018-01-04T14:53:21.304Z,0.00
2018-01-04T14:55:14.566Z,0.00
2018-01-04T14:56:14.493Z,0.00
2018-01-04T14:58:07.881Z,0.00
2018-01-04T14:59:07.685Z,0.00
2018-01-04T15:01:01.074Z,0.00
2018-01-04T15:02:00.869Z,0.00
2018-01-04T15:03:54.257Z,0.00
2018-01-04T15:04:54.070Z,0.00
2018-01-04T15:06:47.397Z,0.00
2018-01-04T15:07:47.312Z,0.00
2018-01-04T15:09:40.558Z,0.00
2018-01-04T15:10:40.485Z,0.00
2018-01-04T15:12:33.759Z,0.00
2018-01-04T15:13:33.673Z,0.00
2018-01-04T15:15:26.924Z,0.00
2018-01-04T15:16:26.858Z,0.00
2018-01-04T15:18:20.134Z,0.00
2018-01-04T15:19:20.049Z,0.00
2018-01-04T15:21:13.386Z,0.00
2018-01-04T15:22:13.306Z,0.00
2018-01-04T15:24:06.697Z,0.00
2018-01-04T15:25:06.498Z,0.00
2018-01-04T15:26:59.772Z,0.00
2018-01-04T15:27:59.669Z,0.00
2018-01-04T15:29:52.926Z,0.00
2018-01-04T15:30:52.856Z,0.00
2018-01-04T15:32:46.170Z,0.00
2018-01-04T15:33:46.079Z,0.00
2018-01-04T15:35:39.376Z,0.00
2018-01-04T15:36:39.321Z,0.00
2018-01-04T15:38:32.582Z,0.00
2018-01-04T15:39:32.491Z,0.00
2018-01-04T15:41:25.745Z,0.00
2018-01-04T15:42:25.674Z,0.00
2018-01-04T15:44:18.958Z,0.00
2018-01-04T15:45:18.861Z,0.00
2018-01-04T15:47:12.138Z,0.00
2018-01-04T15:48:12.052Z,0.00
2018-01-04T15:50:05.401Z,0.00
2018-01-04T15:51:05.308Z,0.00
2018-01-04T15:52:58.609Z,0.00
2018-01-04T15:53:58.499Z,0.00
2018-01-04T15:55:51.754Z,0.00
2018-01-04T15:56:51.681Z,0.00
2018-01-04T15:58:44.959Z,0.00
2018-01-04T15:59:44.869Z,0.00
2018-01-04T16:01:38.137Z,0.00
2018-01-04T16:02:38.048Z,0.00
2018-01-04T16:04:31.395Z,0.00
2018-01-04T16:05:31.304Z,0.00
2018-01-04T16:07:24.579Z,0.00
2018-01-04T16:08:24.492Z,0.00
2018-01-04T16:10:17.744Z,0.00
2018-01-04T16:11:17.682Z,0.00
2018-01-04T16:13:10.958Z,0.00
2018-01-04T16:14:10.873Z,0.00
2018-01-04T16:16:03.634Z,0.00
2018-01-04T16:17:03.565Z,0.00
2018-01-04T16:18:56.839Z,0.00
2018-01-04T16:19:56.750Z,0.00
2018-01-04T16:21:50.010Z,0.00
2018-01-04T16:22:49.938Z,0.00
2018-01-04T16:24:43.326Z,0.00
2018-01-04T16:25:43.129Z,0.00
2018-01-04T16:27:36.449Z,0.00
2018-01-04T16:28:36.331Z,0.00
2018-01-04T16:30:29.575Z,0.00
2018-01-04T16:31:29.505Z,0.00
2018-01-04T16:33:22.782Z,0.00
2018-01-04T16:34:22.693Z,0.00
2018-01-04T16:36:15.955Z,0.00
2018-01-04T16:37:15.885Z,0.00
2018-01-04T16:39:09.189Z,0.00
2018-01-04T16:40:09.077Z,0.00
2018-01-04T16:42:02.340Z,0.00
2018-01-04T16:43:02.267Z,0.00
2018-01-04T16:44:55.653Z,0.00
2018-01-04T16:45:55.464Z,0.00
2018-01-04T16:47:48.847Z,0.00
2018-01-04T16:48:48.658Z,0.00
2018-01-04T16:50:41.911Z,0.00
2018-01-04T16:51:41.841Z,0.00
2018-01-04T16:53:35.124Z,0.00
2018-01-04T16:54:35.032Z,0.00
2018-01-04T16:56:28.306Z,0.00
2018-01-04T16:57:28.219Z,0.00
2018-01-04T16:59:21.532Z,0.00
2018-01-04T17:00:21.437Z,0.00
2018-01-04T17:02:14.700Z,0.00
2018-01-04T17:03:14.632Z,0.00
2018-01-04T17:05:09.028Z,0.00
2018-01-04T17:06:08.823Z,0.00
2018-01-04T17:08:02.100Z,0.00
2018-01-04T17:09:02.014Z,0.00
2018-01-04T17:10:55.272Z,0.00
2018-01-04T17:11:55.204Z,0.00
2018-01-04T17:13:48.589Z,0.00
2018-01-04T17:14:48.393Z,0.00
2018-01-04T17:16:41.761Z,0.00
2018-01-04T17:17:41.584Z,0.00
2018-01-04T17:19:34.849Z,0.00
2018-01-04T17:20:34.765Z,0.00
2018-01-04T17:22:28.026Z,0.00
2018-01-04T17:23:27.958Z,0.00
2018-01-04T17:25:21.344Z,0.00
2018-01-04T17:26:21.150Z,0.00
2018-01-04T17:28:14.536Z,0.00
2018-01-04T17:29:14.349Z,0.00
2018-01-04T17:31:07.600Z,0.00
2018-01-04T17:32:07.530Z,0.00
2018-01-04T17:34:00.805Z,0.00
2018-01-04T17:35:00.712Z,0.00
2018-01-04T17:36:53.962Z,0.00
2018-01-04T17:37:53.890Z,0.00
2018-01-04T17:39:47.205Z,0.00
2018-01-04T17:40:47.115Z,0.00
2018-01-04T17:42:40.536Z,0.00
2018-01-04T17:43:40.296Z,0.00
2018-01-04T17:45:33.572Z,0.00
2018-01-04T17:46:33.491Z,0.00
2018-01-04T17:48:26.942Z,0.00
2018-01-04T17:49:26.730Z,0.00
2018-01-04T17:51:19.932Z,0.00
2018-01-04T17:52:19.862Z,0.00
2018-01-04T17:54:13.213Z,0.00
2018-01-04T17:55:13.123Z,0.00
2018-01-04T17:57:06.369Z,0.00
2018-01-04T17:58:06.300Z,0.00
2018-01-04T17:59:59.570Z,0.00
2018-01-04T18:00:59.481Z,0.00
2018-01-04T18:02:52.884Z,0.00
2018-01-04T18:03:52.721Z,0.00
2018-01-04T18:05:46.013Z,0.00
2018-01-04T18:06:45.908Z,0.00
2018-01-04T18:08:39.204Z,0.00
2018-01-04T18:09:39.068Z,0.00
2018-01-04T18:11:33.392Z,0.00
2018-01-04T18:12:33.337Z,0.00
2018-01-04T18:14:26.778Z,0.00
2018-01-04T18:15:26.513Z,0.00
2018-01-04T18:17:20.418Z,0.00
2018-01-04T18:18:19.704Z,0.00
2018-01-04T18:20:12.492Z,0.00
2018-01-04T18:21:12.396Z,0.00
2018-01-04T18:23:05.658Z,0.00
2018-01-04T18:24:05.592Z,0.00
2018-01-04T18:25:58.977Z,0.00
2018-01-04T18:26:58.770Z,0.00
2018-01-04T18:28:52.038Z,0.00
2018-01-04T18:29:51.954Z,0.00
2018-01-04T18:31:45.205Z,0.00
2018-01-04T18:32:45.133Z,0.00
2018-01-04T18:34:38.414Z,0.00
2018-01-04T18:35:38.324Z,0.00
2018-01-04T18:37:31.591Z,0.00
2018-01-04T18:38:31.506Z,0.00
2018-01-04T18:40:25.779Z,0.00
2018-01-04T18:41:25.693Z,0.00
2018-01-04T18:43:18.937Z,0.00
2018-01-04T18:44:18.870Z,0.00
2018-01-04T18:46:11.771Z,0.00
2018-01-04T18:47:11.578Z,0.00
2018-01-04T18:49:04.845Z,0.00
2018-01-04T18:50:04.792Z,0.00
2018-01-04T18:51:58.014Z,0.00
2018-01-04T18:52:57.949Z,0.00
2018-01-04T18:54:51.214Z,0.00
2018-01-04T18:55:51.127Z,0.00
2018-01-04T18:57:44.398Z,0.00
2018-01-04T18:58:44.305Z,0.00
2018-01-04T19:00:37.580Z,0.00